Home > Products > Valid Products > SSM

000
SMZS01 NSTU 040555
SSMPPG
AAXX 04064
91765 11566 71016 10262 20224 30117 40120 53008 69951 78062 86870
333 56299 70008 555 90406=




000
SMZS01 NSTU 032354
SSMPPG
AAXX 04004
91765 12566 81018 10274 20232 30119 40122 57012 60024 8542/ 333
20247 56299 58005 70023 555 90400=




000
SMZS01 NSTU 031752
SSMPPG
AAXX 03184
91765 11569 81018 10261 20224 30117 40120 52008 69901 70262 8687/
333 56299 70046 555 90318=




000
SMZS01 NSTU 031154
SSMPPG
AAXX 03124
91765 11561 81117 10256 20226 30117 40120 57002 69931 76086 8687/
333 10265 56299 59002 70074 555 90312=




000
SMZS01 NSTU 030556
SSMPPG
AAXX 03064
91765 12466 81116 10263 20227 30107 40110 53010 60021 8682/ 333
56299 70147 555 90306=




000
SMZS01 NSTU 030556
SSMPPG
AAXX 03064
91765 12466 81116 10263 20227 30107 40110 53010 60021 8682/ 333
56299 70147 555 90306=




000
SMZS01 NSTU 022354
SSMPPG
AAXX 03004
91765 11289 81314 10252 20239 30113 40117 57014 60194 78088 888//
333 20246 56399 58004 70185 555 90300=




000
SMZS01 NSTU 021800
SSMPPG
AAXX 02124
91765 11258 81118 10250 20237 30119 40122 57003 60081 78082 8682/
333 10294 56299 58000 70135 555 90212=




000
SMZS01 NSTU 021155
SSMPPG
AAXX 02124
91765 11258 81118 10250 20237 30119 40122 57003 60081 78082 8682/
333 10294 56299 58000 70135 555 90212=




000
SMZS01 NSTU 021155
SSMPPG
AAXX 02124
91765 11258 81118 10250 20237 30119 40122 57003 60081 78082 8682/
333 10294 56299 58000 70135 555 90212=




000
SMZS01 NSTU 020603
SSMPPG
AAXX 02064
91765 11359 81021 10251 20238 30112 40115 53012 60061 78082 884//
333 56299 70066 555 90206=




000
SMZS01 NSTU 012356
SSMPPG
AAXX 02004
91765 11469 41017 10287 20251 30110 40113 56014 69984 70311 84400
333 20261 562// 59011 70008 555 90200=




000
SMZS01 NSTU 011755
SSMPPG
AAXX 01184
91765 12569 81213 10264 20227 30113 40117 51008 69981 85179 333
56399 70008 555 90118=




000
SMZS01 NSTU 011755
SSMPPG
AAXX 01184
91765 12569 81213 10264 20227 30113 40117 51008 69981 85179 333
56399 70008 555 90118=




000
SMZS01 NSTU 011252
SSMPPG
AAXX 01124
91765 32566 61215 10262 20222 30119 40122 57008 84870 333 10270
5639/ 59003 70003 555 90112=




000
SMZS01 NSTU 011252
SSMPPG
AAXX 01124
91765 32566 61215 10262 20222 30119 40122 57008 84870 333 10270
5639/ 59003 70003 555 90112=




    US Dept of Commerce
    National Oceanic and Atmospheric Administration
    National Weather Service
    1325 East West Highway
    Silver Spring, MD 20910
    Page Author: NWS Internet Services Team
Disclaimer
Information Quality
Credits
Glossary
Privacy Policy
Freedom of Information Act (FOIA)
About Us
Career Opportunities